Terminal Aerodrome Forecast
Issued by NWS

Home | Current Version | Previous Version | Text Only | Print | Product List | Glossary On
Versions: 1 2 3 4 5 6 7 8 9 10 11 12 13 14 15 16 17
000
FTUS46 KLOX 311903 AAA
TAFWJF
TAF AMD
KWJF 311903Z 3119/0118 22008KT P6SM SKC
     FM312100 24017G25KT P6SM SKC
     FM010500 24012KT P6SM SKC=

USA.gov is the U.S. government's official web portal to all federal, state and local government web resources and services.